Time;durP1;ratioP1;P1;durP2;ratioP2;P2;SDS_P1;SDS_P2;PMS_P1;PMS_P2;Temp;Humidity;BMP_temperature;BMP_pressure;BME280_temperature;BME280_humidity;BME280_pressure;Samples;Min_cycle;Max_cycle;Signal;HPM_P1;HPM_P2
2021/06/27 00:00:23;;;;;;;16.17;14.53;;;17.20;99.90;;;;;;5111430;28;20172;-71
2021/06/27 00:02:48;;;;;;;15.73;13.33;;;17.10;99.90;;;;;;5111290;28;20608;-71
2021/06/27 00:05:17;;;;;;;18.70;14.80;;;17.10;99.90;;;;;;5111030;28;20231;-70
2021/06/27 00:07:43;;;;;;;15.90;14.23;;;17.10;99.90;;;;;;5111286;28;20196;-70
2021/06/27 00:10:12;;;;;;;17.00;15.10;;;17.10;99.90;;;;;;5111535;28;20164;-70
2021/06/27 00:12:38;;;;;;;16.60;14.57;;;17.10;99.90;;;;;;5110707;28;20170;-70
2021/06/27 00:15:12;;;;;;;18.07;16.20;;;17.00;99.90;;;;;;5111164;28;20224;-70
2021/06/27 00:17:37;;;;;;;17.80;15.67;;;17.00;99.90;;;;;;5113941;28;20645;-70
2021/06/27 00:20:07;;;;;;;15.67;13.53;;;17.00;99.90;;;;;;5115212;28;20175;-71
2021/06/27 00:22:32;;;;;;;16.87;14.33;;;17.00;99.90;;;;;;5114589;28;20670;-70
2021/06/27 00:24:58;;;;;;;18.20;16.30;;;17.00;99.90;;;;;;5115484;28;20174;-70
2021/06/27 00:27:23;;;;;;;18.23;16.33;;;17.00;99.90;;;;;;5114835;28;20188;-70
2021/06/27 00:29:49;;;;;;;18.77;15.30;;;17.00;99.90;;;;;;5114907;28;20175;-70
2021/06/27 00:32:14;;;;;;;18.80;15.33;;;17.00;99.90;;;;;;5115056;28;20632;-71
2021/06/27 00:34:40;;;;;;;17.83;15.87;;;16.90;99.90;;;;;;5116927;28;20192;-70
2021/06/27 00:37:06;;;;;;;19.20;15.70;;;16.90;99.90;;;;;;5116114;28;20255;-70
2021/06/27 00:39:32;;;;;;;17.20;15.27;;;16.90;99.90;;;;;;5116041;28;20191;-71
2021/06/27 00:41:57;;;;;;;17.17;14.87;;;16.90;99.90;;;;;;5115499;28;20178;-71
2021/06/27 00:44:23;;;;;;;19.40;16.20;;;16.90;99.90;;;;;;5114951;28;20171;-70
2021/06/27 00:46:53;;;;;;;17.67;15.50;;;16.90;99.90;;;;;;5115295;28;20168;-70
2021/06/27 00:49:20;;;;;;;18.47;14.80;;;16.90;99.90;;;;;;5096218;28;20206;-70
2021/06/27 00:51:46;;;;;;;20.30;16.30;;;16.80;99.90;;;;;;5114410;28;20264;-70
2021/06/27 00:54:11;;;;;;;19.03;16.70;;;16.80;99.90;;;;;;5114472;28;20199;-70
2021/06/27 00:56:37;;;;;;;18.43;16.23;;;16.80;99.90;;;;;;5114419;28;20570;-70
2021/06/27 00:59:02;;;;;;;18.93;15.40;;;16.80;99.90;;;;;;5114337;28;20190;-70
2021/06/27 01:01:28;;;;;;;18.30;16.13;;;16.80;99.90;;;;;;5114286;28;20170;-70
2021/06/27 01:03:53;;;;;;;19.37;16.53;;;16.80;99.90;;;;;;5114426;28;20196;-70
2021/06/27 01:06:19;;;;;;;17.60;15.57;;;16.80;99.90;;;;;;5114157;28;20205;-71
2021/06/27 01:08:45;;;;;;;17.60;15.67;;;16.80;99.90;;;;;;5114568;28;20192;-70
2021/06/27 01:11:10;;;;;;;21.17;15.37;;;16.80;99.90;;;;;;5113900;28;20191;-70
2021/06/27 01:13:36;;;;;;;17.90;15.47;;;16.90;99.90;;;;;;5114006;28;20207;-69
2021/06/27 01:16:02;;;;;;;16.03;14.40;;;16.90;99.90;;;;;;5114045;28;20167;-70
2021/06/27 01:18:27;;;;;;;16.47;13.53;;;16.90;99.90;;;;;;5113948;28;20210;-70
2021/06/27 01:20:53;;;;;;;18.13;14.20;;;16.90;99.90;;;;;;5113738;28;20163;-70
2021/06/27 01:23:19;;;;;;;15.83;14.20;;;16.90;99.90;;;;;;5114331;28;20203;-70
2021/06/27 01:25:48;;;;;;;15.87;13.47;;;17.00;99.90;;;;;;5114111;28;20210;-70
2021/06/27 01:28:14;;;;;;;15.20;13.70;;;16.90;99.90;;;;;;5112973;28;20199;-70
2021/06/27 01:30:41;;;;;;;15.80;13.10;;;17.00;99.90;;;;;;5113404;28;20176;-70
2021/06/27 01:33:10;;;;;;;15.03;13.47;;;17.00;99.90;;;;;;5113792;28;20175;-70
2021/06/27 01:35:36;;;;;;;15.40;13.33;;;16.90;99.90;;;;;;5095318;28;20258;-70
2021/06/27 01:38:03;;;;;;;16.10;14.40;;;17.00;99.90;;;;;;5113560;28;20333;-70
2021/06/27 01:40:31;;;;;;;15.33;13.80;;;17.00;99.90;;;;;;5113424;28;20179;-70
2021/06/27 01:43:10;;;;;;;16.37;14.67;;;17.10;99.90;;;;;;5113385;28;20188;-70
2021/06/27 01:45:37;;;;;;;16.23;13.73;;;17.20;99.90;;;;;;5113627;28;20684;-70
2021/06/27 01:48:06;;;;;;;15.93;13.40;;;17.30;99.90;;;;;;5113187;28;20199;-70
2021/06/27 01:50:33;;;;;;;15.23;13.63;;;17.30;99.90;;;;;;5113202;28;20172;-70
2021/06/27 01:53:00;;;;;;;16.17;14.47;;;17.40;99.90;;;;;;5113423;28;20179;-70
2021/06/27 01:55:26;;;;;;;17.33;14.87;;;17.50;99.90;;;;;;5113120;28;20248;-70
2021/06/27 01:57:53;;;;;;;16.40;14.43;;;17.50;99.90;;;;;;5113324;28;20660;-70
2021/06/27 02:00:19;;;;;;;17.07;14.10;;;17.50;99.90;;;;;;5113126;28;20693;-70
2021/06/27 02:02:46;;;;;;;15.90;14.20;;;17.50;99.90;;;;;;5112995;28;20195;-70
2021/06/27 02:05:12;;;;;;;19.07;14.73;;;17.40;99.90;;;;;;5113484;28;20174;-71
2021/06/27 02:07:38;;;;;;;17.87;15.00;;;17.30;99.90;;;;;;5113428;28;20192;-70
2021/06/27 02:10:09;;;;;;;18.97;15.30;;;17.30;99.90;;;;;;5113340;28;20582;-70
2021/06/27 02:12:35;;;;;;;19.83;14.17;;;17.30;99.90;;;;;;5113027;28;20171;-70
2021/06/27 02:15:02;;;;;;;16.97;15.10;;;17.30;99.90;;;;;;5112986;28;20203;-71
2021/06/27 02:17:28;;;;;;;16.57;14.77;;;17.30;99.90;;;;;;5113049;28;20192;-70
2021/06/27 02:19:54;;;;;;;21.20;15.27;;;17.40;99.90;;;;;;5112828;28;20510;-70
2021/06/27 02:22:21;;;;;;;17.20;14.37;;;17.40;99.90;;;;;;5112609;28;20204;-70
2021/06/27 02:24:47;;;;;;;19.53;16.10;;;17.40;99.90;;;;;;5112886;28;20172;-69
2021/06/27 02:27:12;;;;;;;16.73;14.73;;;17.50;99.90;;;;;;5113053;28;20503;-70
2021/06/27 02:29:38;;;;;;;16.03;14.30;;;17.60;99.90;;;;;;5112535;28;20201;-70
2021/06/27 02:32:05;;;;;;;16.77;14.07;;;17.60;99.90;;;;;;5112414;28;20260;-71
2021/06/27 02:34:31;;;;;;;16.33;14.13;;;17.70;99.90;;;;;;5112716;28;20163;-70
2021/06/27 02:36:57;;;;;;;16.50;14.10;;;17.70;99.90;;;;;;5112836;28;20662;-70
2021/06/27 02:39:23;;;;;;;16.60;14.83;;;17.70;99.90;;;;;;5112015;28;20164;-70
2021/06/27 02:41:48;;;;;;;17.03;15.33;;;17.70;99.90;;;;;;5112076;28;20174;-71
2021/06/27 02:44:14;;;;;;;16.47;14.63;;;17.70;99.90;;;;;;5112109;28;20532;-70
2021/06/27 02:46:40;;;;;;;18.87;14.93;;;17.70;99.90;;;;;;5094694;28;20171;-71
2021/06/27 02:49:05;;;;;;;17.23;14.97;;;17.70;99.90;;;;;;5096697;28;20207;-71
2021/06/27 02:51:31;;;;;;;17.97;14.47;;;17.70;99.90;;;;;;5112617;28;20181;-71
2021/06/27 02:53:56;;;;;;;17.73;14.53;;;17.70;99.90;;;;;;5112540;28;20475;-71
2021/06/27 02:56:22;;;;;;;18.97;14.37;;;17.70;99.90;;;;;;5112425;28;20179;-71
2021/06/27 02:58:48;;;;;;;19.60;15.63;;;17.60;99.90;;;;;;5112071;28;20286;-71
2021/06/27 03:01:16;;;;;;;16.53;14.83;;;17.50;99.90;;;;;;5112247;28;20585;-71
2021/06/27 03:03:42;;;;;;;17.73;15.87;;;17.50;99.90;;;;;;5111945;28;20208;-71
2021/06/27 03:06:09;;;;;;;19.40;15.63;;;17.60;99.90;;;;;;5112461;28;20215;-70
2021/06/27 03:08:35;;;;;;;18.67;15.37;;;17.50;99.90;;;;;;5111930;28;20191;-71
2021/06/27 03:11:01;;;;;;;17.30;15.00;;;17.50;99.90;;;;;;5111906;28;20184;-71
2021/06/27 03:13:27;;;;;;;19.60;16.43;;;17.50;99.90;;;;;;5112013;28;20747;-71
2021/06/27 03:15:54;;;;;;;23.00;16.37;;;17.50;99.90;;;;;;5112125;28;20536;-71
2021/06/27 03:18:19;;;;;;;16.80;15.07;;;17.50;99.90;;;;;;5111793;28;20290;-71
2021/06/27 03:20:45;;;;;;;20.83;16.77;;;17.50;99.90;;;;;;5111381;28;20614;-71
2021/06/27 03:23:12;;;;;;;20.50;16.77;;;17.50;99.90;;;;;;5111884;28;20259;-71
2021/06/27 03:25:38;;;;;;;18.73;16.73;;;17.60;99.90;;;;;;5110584;28;20176;-71
2021/06/27 03:28:04;;;;;;;19.90;17.10;;;17.70;99.90;;;;;;5112034;28;20183;-71
2021/06/27 03:30:30;;;;;;;18.93;16.37;;;17.70;99.90;;;;;;5111306;28;20182;-71
2021/06/27 03:32:55;;;;;;;20.17;17.47;;;17.70;99.90;;;;;;5111390;28;20182;-71
2021/06/27 03:35:21;;;;;;;24.80;17.77;;;17.70;99.90;;;;;;5111479;28;20259;-71
2021/06/27 03:40:32;;;;;;;23.97;17.83;;;17.70;99.90;;;;;;5069104;28;20725;-71
2021/06/27 03:43:01;;;;;;;22.30;17.93;;;17.70;99.90;;;;;;5111168;28;20210;-71
2021/06/27 03:45:28;;;;;;;22.13;19.30;;;17.70;99.90;;;;;;5111820;28;20179;-71
2021/06/27 03:47:54;;;;;;;22.87;18.13;;;17.60;99.90;;;;;;5111334;28;20203;-70
2021/06/27 03:50:20;;;;;;;21.33;18.63;;;17.50;99.90;;;;;;5111391;28;20235;-71
2021/06/27 03:52:47;;;;;;;23.47;18.53;;;17.60;99.90;;;;;;5110712;28;20262;-71
2021/06/27 03:55:13;;;;;;;24.10;18.57;;;17.50;99.90;;;;;;5111202;28;20183;-71
2021/06/27 03:57:39;;;;;;;24.50;18.23;;;17.60;99.90;;;;;;5111151;28;20194;-71
2021/06/27 04:00:07;;;;;;;22.37;18.37;;;17.60;99.90;;;;;;5111258;28;20178;-71
2021/06/27 04:02:32;;;;;;;19.90;17.60;;;17.70;99.90;;;;;;5110970;28;20199;-71
2021/06/27 04:04:58;;;;;;;22.30;18.10;;;17.70;99.90;;;;;;5111576;28;20197;-71
2021/06/27 04:07:23;;;;;;;23.03;19.07;;;17.60;99.90;;;;;;5111413;28;20195;-71
2021/06/27 04:09:49;;;;;;;23.07;18.60;;;17.60;99.90;;;;;;5111310;28;20184;-71
2021/06/27 04:12:14;;;;;;;24.37;18.33;;;17.60;99.90;;;;;;5111547;28;20174;-70
2021/06/27 04:14:40;;;;;;;25.67;17.60;;;17.70;99.90;;;;;;5111383;28;20636;-71
2021/06/27 04:17:06;;;;;;;20.50;17.30;;;17.80;99.90;;;;;;5111119;28;20254;-71
2021/06/27 04:19:31;;;;;;;23.10;16.87;;;17.90;99.90;;;;;;5111732;28;20525;-71
2021/06/27 04:21:57;;;;;;;19.47;16.87;;;17.90;99.90;;;;;;5110882;28;20597;-71
2021/06/27 04:24:23;;;;;;;20.23;16.63;;;17.90;99.90;;;;;;5111166;28;20644;-70
2021/06/27 04:26:48;;;;;;;18.57;16.23;;;17.90;99.90;;;;;;5111301;28;20171;-71
2021/06/27 04:29:16;;;;;;;20.27;16.87;;;17.90;99.90;;;;;;5110986;28;20195;-70
2021/06/27 04:31:42;;;;;;;19.80;15.77;;;18.00;99.90;;;;;;5110692;28;20172;-71
2021/06/27 04:34:08;;;;;;;17.43;15.57;;;18.00;99.90;;;;;;5110884;28;20165;-70
2021/06/27 04:36:34;;;;;;;19.80;15.10;;;18.00;99.90;;;;;;5110723;28;20171;-70
2021/06/27 04:38:59;;;;;;;20.03;15.13;;;18.10;99.90;;;;;;5110587;28;20192;-70
2021/06/27 04:41:25;;;;;;;16.43;13.90;;;18.20;99.90;;;;;;5092228;28;20175;-71
2021/06/27 04:43:50;;;;;;;19.03;15.40;;;18.20;99.90;;;;;;5110699;28;20199;-70
2021/06/27 04:46:17;;;;;;;16.60;14.87;;;18.20;99.90;;;;;;5092752;28;20180;-70
2021/06/27 04:48:43;;;;;;;22.40;15.00;;;18.20;99.90;;;;;;5110334;28;20235;-70
2021/06/27 04:51:08;;;;;;;20.20;14.90;;;18.20;99.90;;;;;;5110167;28;20199;-70
2021/06/27 04:53:34;;;;;;;18.77;14.77;;;18.30;99.90;;;;;;5110532;28;20172;-70
2021/06/27 04:56:00;;;;;;;22.80;15.27;;;18.30;99.90;;;;;;5110672;28;20224;-71
2021/06/27 04:58:26;;;;;;;21.47;16.00;;;18.30;99.90;;;;;;5110570;28;20196;-71
2021/06/27 05:00:51;;;;;;;19.90;16.53;;;18.40;99.90;;;;;;5110549;28;20261;-70
2021/06/27 05:03:17;;;;;;;21.10;15.97;;;18.30;99.90;;;;;;5112612;28;20699;-70
2021/06/27 05:05:42;;;;;;;19.93;16.70;;;18.40;99.90;;;;;;5114147;28;20216;-70
2021/06/27 05:08:08;;;;;;;18.53;16.57;;;18.40;99.90;;;;;;5114416;28;20198;-70
2021/06/27 05:10:34;;;;;;;21.07;17.00;;;18.40;99.90;;;;;;5113840;28;20168;-70
2021/06/27 05:12:59;;;;;;;20.63;16.27;;;18.40;99.90;;;;;;5114142;28;20185;-71
2021/06/27 05:15:25;;;;;;;21.13;17.17;;;18.50;99.90;;;;;;5114272;28;20232;-71
2021/06/27 05:17:51;;;;;;;18.87;16.87;;;18.70;99.90;;;;;;5114105;28;20188;-70
2021/06/27 05:20:16;;;;;;;22.27;18.17;;;18.90;99.90;;;;;;5113959;28;20172;-71
2021/06/27 05:22:42;;;;;;;19.30;16.57;;;18.90;99.90;;;;;;5113800;28;20199;-70
2021/06/27 05:25:08;;;;;;;21.57;16.70;;;19.00;99.90;;;;;;5113974;28;20192;-70
2021/06/27 05:27:34;;;;;;;19.00;16.77;;;19.00;99.90;;;;;;5113915;28;20186;-70
2021/06/27 05:29:59;;;;;;;20.63;17.17;;;19.10;99.90;;;;;;5114311;28;20247;-70
2021/06/27 05:32:25;;;;;;;22.37;18.07;;;19.10;99.90;;;;;;5114139;28;20186;-70
2021/06/27 05:34:50;;;;;;;21.03;18.73;;;19.20;99.90;;;;;;5114606;28;20658;-70
2021/06/27 05:37:16;;;;;;;23.50;17.97;;;19.30;99.90;;;;;;5115597;28;20176;-70
2021/06/27 05:39:41;;;;;;;22.17;17.90;;;19.30;99.90;;;;;;5114714;28;20177;-71
2021/06/27 05:42:07;;;;;;;21.30;17.90;;;19.30;99.90;;;;;;5113678;28;20172;-72
2021/06/27 05:44:32;;;;;;;21.93;18.37;;;19.30;99.90;;;;;;5113715;28;20194;-72
2021/06/27 05:46:58;;;;;;;20.33;18.20;;;19.40;99.90;;;;;;5113709;28;20195;-72
2021/06/27 05:49:23;;;;;;;20.73;18.33;;;19.50;99.90;;;;;;5133518;22;20223;-78
2021/06/27 05:51:49;;;;;;;22.20;19.03;;;19.60;99.90;;;;;;5113414;28;20217;-77
2021/06/27 05:54:14;;;;;;;21.17;16.73;;;19.60;99.90;;;;;;5113887;28;20168;-77
2021/06/27 05:56:40;;;;;;;18.87;16.47;;;19.60;99.90;;;;;;5116027;28;20168;-77
2021/06/27 05:59:06;;;;;;;20.30;16.80;;;19.60;99.90;;;;;;5099806;28;20192;-77
2021/06/27 06:01:31;;;;;;;18.30;16.40;;;19.60;99.90;;;;;;5122793;28;20168;-77
2021/06/27 06:03:57;;;;;;;20.53;18.10;;;19.70;99.90;;;;;;5117825;28;20222;-77
2021/06/27 06:06:23;;;;;;;21.17;16.83;;;19.70;99.90;;;;;;5095505;28;20540;-77
2021/06/27 06:08:48;;;;;;;23.77;17.93;;;19.80;99.90;;;;;;5095916;28;20193;-77
2021/06/27 06:11:15;;;;;;;23.20;18.37;;;19.90;99.90;;;;;;5113698;28;20179;-77
2021/06/27 06:13:41;;;;;;;21.60;18.67;;;19.90;99.90;;;;;;5113513;28;20176;-77
2021/06/27 06:16:08;;;;;;;25.30;20.37;;;19.90;99.90;;;;;;5113256;28;20268;-78
2021/06/27 06:18:35;;;;;;;22.23;19.83;;;20.00;99.90;;;;;;5113262;28;20185;-77
2021/06/27 06:21:01;;;;;;;25.83;21.80;;;20.10;99.90;;;;;;5113198;28;20665;-77
2021/06/27 06:23:27;;;;;;;26.87;22.77;;;20.10;99.90;;;;;;5113542;28;20298;-77
2021/06/27 06:25:53;;;;;;;26.97;21.90;;;20.10;99.90;;;;;;5113469;28;20200;-77
2021/06/27 06:28:18;;;;;;;26.67;21.77;;;20.00;99.90;;;;;;5113551;28;20536;-77
2021/06/27 06:30:44;;;;;;;26.77;21.30;;;20.00;99.90;;;;;;5113637;28;20284;-78
2021/06/27 06:33:11;;;;;;;23.23;20.63;;;20.00;99.90;;;;;;5113410;28;20600;-77
2021/06/27 06:35:41;;;;;;;23.97;18.00;;;19.80;99.90;;;;;;5113355;28;20172;-78
2021/06/27 06:38:08;;;;;;;21.67;17.90;;;19.70;99.90;;;;;;5113597;28;20195;-78
2021/06/27 06:40:34;;;;;;;25.07;19.27;;;19.70;99.90;;;;;;5116669;28;20199;-78
2021/06/27 06:43:01;;;;;;;21.47;18.77;;;19.70;99.90;;;;;;5079858;28;20234;-78
2021/06/27 06:45:27;;;;;;;22.53;18.43;;;19.80;99.90;;;;;;5113356;28;20171;-78
2021/06/27 06:47:54;;;;;;;22.27;19.00;;;19.90;99.90;;;;;;5112900;28;20302;-77
2021/06/27 06:50:20;;;;;;;22.70;19.50;;;20.10;99.90;;;;;;5114055;28;20264;-78
2021/06/27 06:52:45;;;;;;;23.40;20.20;;;20.00;99.90;;;;;;5116359;28;20306;-77
2021/06/27 06:55:11;;;;;;;23.83;19.60;;;20.00;99.90;;;;;;5114310;28;20232;-77
2021/06/27 06:57:37;;;;;;;28.63;21.20;;;20.10;99.90;;;;;;5113782;28;20213;-77
2021/06/27 07:00:05;;;;;;;25.17;20.90;;;20.30;99.90;;;;;;5114110;28;20261;-77
2021/06/27 07:02:32;;;;;;;27.10;21.13;;;20.60;99.90;;;;;;5112942;28;20283;-77
2021/06/27 07:04:57;;;;;;;25.87;22.00;;;20.90;99.90;;;;;;5113155;28;20170;-77
2021/06/27 07:07:23;;;;;;;28.37;23.03;;;21.00;99.90;;;;;;5094693;28;20173;-77
2021/06/27 07:09:48;;;;;;;26.57;22.83;;;21.00;99.90;;;;;;5112661;28;20180;-77
2021/06/27 07:12:14;;;;;;;29.73;21.87;;;21.20;99.90;;;;;;5112667;28;20486;-77
2021/06/27 07:14:40;;;;;;;24.97;19.37;;;21.50;99.90;;;;;;5112988;28;20205;-77
2021/06/27 07:17:05;;;;;;;24.03;18.33;;;21.30;99.90;;;;;;5112684;28;20186;-77
2021/06/27 07:19:31;;;;;;;22.63;18.77;;;21.30;99.90;;;;;;5112875;28;20202;-77
2021/06/27 07:21:56;;;;;;;23.03;19.90;;;21.40;99.90;;;;;;5112486;28;20223;-77
2021/06/27 07:24:22;;;;;;;23.80;20.13;;;21.60;99.90;;;;;;5112542;28;20586;-77
2021/06/27 07:26:48;;;;;;;23.33;20.23;;;21.80;99.90;;;;;;5111623;28;20566;-77
2021/06/27 07:29:14;;;;;;;28.57;21.53;;;21.80;99.90;;;;;;5112444;28;20183;-78
2021/06/27 07:31:39;;;;;;;24.95;20.15;;;22.00;99.90;;;;;;5112490;28;20509;-78
2021/06/27 07:34:05;;;;;;;21.57;18.67;;;22.30;99.90;;;;;;5112477;28;20175;-78
2021/06/27 07:36:30;;;;;;;22.03;18.10;;;22.20;99.90;;;;;;5112611;28;20183;-77
2021/06/27 07:38:55;;;;;;;20.53;16.93;;;22.40;99.90;;;;;;5112472;28;20193;-77
2021/06/27 07:41:21;;;;;;;21.97;16.60;;;22.40;99.90;;;;;;5114484;28;20198;-78
2021/06/27 07:43:50;;;;;;;18.80;16.57;;;22.10;99.90;;;;;;5094920;28;20208;-78
2021/06/27 07:46:16;;;;;;;22.23;15.47;;;21.90;99.90;;;;;;5115290;28;20179;-75
2021/06/27 07:48:41;;;;;;;18.37;15.07;;;22.10;99.90;;;;;;5093751;28;20298;-77
2021/06/27 07:51:07;;;;;;;19.23;15.30;;;22.00;99.90;;;;;;5112648;28;20182;-77
2021/06/27 07:53:32;;;;;;;17.17;14.50;;;22.00;99.90;;;;;;5112441;28;20237;-77
2021/06/27 07:55:57;;;;;;;19.50;14.77;;;21.90;99.90;;;;;;5112808;28;20180;-77
2021/06/27 07:58:23;;;;;;;19.50;15.37;;;21.70;99.90;;;;;;5094372;28;20194;-77
2021/06/27 08:00:49;;;;;;;18.23;15.63;;;21.80;99.90;;;;;;5113006;28;20633;-78
2021/06/27 08:03:14;;;;;;;18.70;15.77;;;21.80;99.90;;;;;;5112319;28;20277;-78
2021/06/27 08:05:39;;;;;;;21.13;17.27;;;21.90;99.90;;;;;;5093929;28;20187;-77
2021/06/27 08:08:05;;;;;;;23.47;18.67;;;21.70;99.90;;;;;;5112724;28;20188;-78
2021/06/27 08:10:31;;;;;;;21.83;17.50;;;21.80;99.90;;;;;;5112863;28;20174;-78
2021/06/27 08:12:56;;;;;;;21.40;17.50;;;21.50;99.90;;;;;;5113148;28;20179;-78
2021/06/27 08:15:22;;;;;;;19.67;17.23;;;21.50;99.90;;;;;;5112783;28;20210;-78
2021/06/27 08:17:49;;;;;;;20.33;16.40;;;21.60;99.90;;;;;;5112196;28;20194;-78
2021/06/27 08:20:16;;;;;;;16.27;14.57;;;21.90;99.90;;;;;;5112175;28;20186;-78
2021/06/27 08:22:42;;;;;;;18.07;15.53;;;21.80;99.90;;;;;;5111588;28;20190;-77
2021/06/27 08:25:08;;;;;;;17.53;15.37;;;21.90;99.90;;;;;;5111826;28;20221;-77
2021/06/27 08:27:34;;;;;;;19.10;15.37;;;21.90;99.90;;;;;;5114194;28;20206;-77
2021/06/27 08:30:00;;;;;;;18.90;14.40;;;21.70;99.90;;;;;;5113473;28;20230;-77
2021/06/27 08:32:26;;;;;;;15.30;13.70;;;22.00;99.90;;;;;;5113313;28;20229;-77
2021/06/27 08:34:52;;;;;;;15.80;13.47;;;22.30;99.90;;;;;;5112843;28;20230;-76
2021/06/27 08:37:17;;;;;;;15.40;13.90;;;22.50;99.90;;;;;;5112504;28;20388;-77
2021/06/27 08:39:43;;;;;;;17.30;14.53;;;22.40;99.90;;;;;;5116843;28;20174;-77
2021/06/27 08:42:08;;;;;;;13.63;12.17;;;22.50;99.90;;;;;;5117425;28;20182;-77
2021/06/27 08:44:34;;;;;;;14.73;13.07;;;22.50;99.90;;;;;;5118002;28;20165;-77
2021/06/27 08:47:02;;;;;;;14.05;12.50;;;22.20;99.90;;;;;;5118131;28;20174;-77
2021/06/27 08:49:28;;;;;;;13.57;11.57;;;22.40;99.90;;;;;;5119425;28;20545;-77
2021/06/27 08:51:55;;;;;;;12.48;11.18;;;22.50;99.90;;;;;;5119035;28;20250;-77
2021/06/27 08:54:21;;;;;;;12.82;11.35;;;22.90;99.90;;;;;;5119532;28;20183;-78
2021/06/27 08:56:46;;;;;;;12.80;11.30;;;23.20;99.90;;;;;;5119111;28;20185;-78
2021/06/27 08:59:12;;;;;;;11.88;10.63;;;23.40;99.90;;;;;;5118423;28;20382;-77
2021/06/27 09:01:37;;;;;;;13.38;10.05;;;23.30;99.90;;;;;;5101361;28;20219;-77
2021/06/27 09:04:03;;;;;;;10.23;9.07;;;23.60;99.90;;;;;;5117732;28;20202;-77
2021/06/27 09:06:37;;;;;;;10.20;8.43;;;23.70;99.90;;;;;;5117434;28;20525;-78
2021/06/27 09:09:15;;;;;;;9.90;8.05;;;23.70;99.90;;;;;;5114846;28;20247;-77
2021/06/27 09:11:59;;;;;;;7.25;6.50;;;23.80;99.90;;;;;;5115387;28;20292;-77
2021/06/27 09:14:35;;;;;;;10.30;6.68;;;23.50;99.90;;;;;;5120010;28;20160;-77
2021/06/27 09:17:24;;;;;;;6.80;6.20;;;23.10;99.90;;;;;;5138844;28;20203;-76
2021/06/27 09:19:53;;;;;;;8.85;6.88;;;23.00;99.90;;;;;;5122783;28;20234;-77
2021/06/27 09:22:27;;;;;;;7.45;6.65;;;23.10;99.90;;;;;;5140240;28;20165;-78
2021/06/27 09:25:09;;;;;;;6.93;6.22;;;23.30;99.90;;;;;;5140049;28;20171;-78
2021/06/27 09:27:37;;;;;;;8.93;6.70;;;23.30;99.90;;;;;;5122355;28;20193;-77
2021/06/27 09:30:13;;;;;;;7.70;6.93;;;23.50;99.90;;;;;;5140179;28;20149;-77
2021/06/27 09:32:53;;;;;;;7.75;6.95;;;23.50;99.90;;;;;;5122041;28;20179;-77
2021/06/27 09:35:39;;;;;;;8.15;7.22;;;23.50;99.90;;;;;;5139296;28;20167;-77
2021/06/27 09:38:25;;;;;;;8.75;7.60;;;23.20;99.90;;;;;;5132556;28;20412;-78
2021/06/27 09:40:59;;;;;;;9.13;7.38;;;22.90;99.90;;;;;;5115358;28;20608;-78
2021/06/27 09:43:26;;;;;;;8.02;7.22;;;23.00;99.90;;;;;;5115447;28;20270;-77
2021/06/27 09:46:13;;;;;;;10.15;7.85;;;23.00;99.90;;;;;;5115854;28;20180;-78
2021/06/27 09:48:56;;;;;;;8.88;7.85;;;22.90;99.90;;;;;;5114582;28;20294;-78
2021/06/27 09:51:25;;;;;;;9.13;8.10;;;23.10;99.90;;;;;;5115334;28;20165;-77
2021/06/27 09:53:52;;;;;;;8.25;7.47;;;23.00;99.90;;;;;;5115720;28;20181;-77
2021/06/27 09:56:18;;;;;;;10.70;8.45;;;23.60;99.90;;;;;;5098427;28;20202;-79
2021/06/27 09:58:57;;;;;;;10.18;8.82;;;24.10;99.90;;;;;;5115060;28;20193;-77
2021/06/27 10:01:25;;;;;;;8.15;7.35;;;24.20;99.90;;;;;;5115521;28;20277;-78
2021/06/27 10:03:52;;;;;;;11.95;8.45;;;23.80;99.90;;;;;;5115611;28;20240;-77
2021/06/27 10:06:18;;;;;;;8.95;8.00;;;23.90;99.90;;;;;;5116063;28;20166;-78
2021/06/27 10:08:45;;;;;;;9.85;8.65;;;23.90;99.90;;;;;;5120128;28;20183;-79
2021/06/27 10:11:16;;;;;;;12.15;8.73;;;23.90;99.90;;;;;;5128452;28;20195;-78
2021/06/27 10:13:49;;;;;;;10.68;8.75;;;24.20;99.90;;;;;;5121773;28;20702;-76
2021/06/27 10:16:31;;;;;;;10.43;8.35;;;24.20;99.90;;;;;;5115462;28;20171;-77
2021/06/27 10:18:58;;;;;;;10.77;8.80;;;24.30;99.90;;;;;;5117554;28;20182;-77
2021/06/27 10:21:24;;;;;;;11.50;9.77;;;24.40;99.90;;;;;;5119292;28;20175;-77
2021/06/27 10:23:51;;;;;;;11.23;9.13;;;24.50;99.90;;;;;;5114338;28;20203;-78
2021/06/27 10:26:18;;;;;;;11.63;8.90;;;24.30;99.90;;;;;;5116072;28;20178;-76
2021/06/27 10:28:47;;;;;;;10.68;9.27;;;24.00;99.90;;;;;;5114902;28;20224;-78
2021/06/27 10:31:12;;;;;;;13.38;11.25;;;24.10;99.90;;;;;;5115308;28;20595;-78
2021/06/27 10:33:40;;;;;;;14.93;12.13;;;24.10;99.90;;;;;;5117155;28;20247;-78
2021/06/27 10:36:06;;;;;;;13.20;11.27;;;24.00;99.90;;;;;;5116472;28;20246;-80
2021/06/27 10:38:34;;;;;;;14.73;12.20;;;23.40;99.90;;;;;;5116190;28;20194;-78
2021/06/27 10:41:00;;;;;;;15.48;11.65;;;23.10;99.90;;;;;;5115434;28;20174;-77
2021/06/27 10:44:00;;;;;;;13.55;12.02;;;23.00;99.90;;;;;;5114322;28;20307;-78
2021/06/27 10:46:49;;;;;;;13.43;11.15;;;23.10;99.90;;;;;;5116851;28;20194;-77
2021/06/27 10:49:33;;;;;;;12.80;11.45;;;22.70;99.90;;;;;;5116316;28;20201;-77
2021/06/27 10:52:05;;;;;;;13.75;11.32;;;22.90;99.90;;;;;;5118208;28;20169;-78
2021/06/27 10:54:39;;;;;;;14.13;11.15;;;23.30;99.90;;;;;;5109997;28;20177;-77
2021/06/27 10:57:07;;;;;;;12.32;10.43;;;23.60;99.90;;;;;;5122597;28;20169;-78
2021/06/27 10:59:55;;;;;;;11.98;9.82;;;23.90;99.90;;;;;;5115187;28;20621;-79
2021/06/27 11:02:34;;;;;;;13.50;12.10;;;24.50;99.90;;;;;;5115221;28;20175;-77
2021/06/27 11:05:33;;;;;;;15.80;12.20;;;24.60;99.90;;;;;;5115945;28;20176;-78
2021/06/27 11:08:01;;;;;;;14.68;13.18;;;24.80;99.90;;;;;;5116534;28;20183;-78
2021/06/27 11:10:28;;;;;;;23.30;15.85;;;24.80;99.90;;;;;;5097708;28;20175;-78
2021/06/27 11:13:02;;;;;;;18.40;15.90;;;24.10;99.90;;;;;;5116255;28;20254;-78
2021/06/27 11:15:36;;;;;;;16.75;14.32;;;23.80;99.90;;;;;;5114822;28;20193;-78
2021/06/27 11:18:09;;;;;;;17.92;14.95;;;23.80;99.90;;;;;;5114824;28;20202;-78
2021/06/27 11:20:55;;;;;;;19.30;13.25;;;23.80;99.90;;;;;;5114212;28;20227;-78
2021/06/27 11:24:02;;;;;;;17.60;14.00;;;24.20;99.90;;;;;;5114911;28;20568;-77
2021/06/27 11:26:50;;;;;;;16.25;13.82;;;24.40;99.90;;;;;;5114290;28;20202;-77
2021/06/27 11:29:22;;;;;;;16.45;12.93;;;24.50;99.90;;;;;;5113644;28;20245;-79
2021/06/27 11:31:52;;;;;;;18.17;13.95;;;24.80;99.90;;;;;;5114038;28;20257;-78
2021/06/27 11:34:29;;;;;;;14.43;11.65;;;24.90;99.90;;;;;;5115064;28;20179;-77
2021/06/27 11:37:17;;;;;;;14.48;11.40;;;25.00;99.90;;;;;;5112494;28;20643;-78
2021/06/27 11:39:42;;;;;;;16.38;10.98;;;25.40;99.90;;;;;;5104171;28;20263;-79
2021/06/27 11:42:34;;;;;;;12.02;10.82;;;25.30;99.90;;;;;;5114713;28;20230;-78
2021/06/27 11:47:34;;;;;;;23.20;11.57;;;25.40;99.90;;;;;;5113154;28;20262;-78
2021/06/27 11:50:33;;;;;;;12.43;11.13;;;24.90;99.90;;;;;;5123583;22;20595;-73
2021/06/27 11:53:05;;;;;;;12.52;10.57;;;24.80;99.90;;;;;;5066695;28;20183;-72
2021/06/27 11:55:36;;;;;;;10.20;9.02;;;25.00;99.90;;;;;;5111980;28;20254;-72
2021/06/27 11:58:04;;;;;;;11.10;9.98;;;24.90;99.90;;;;;;5113815;28;20171;-72
2021/06/27 12:00:39;;;;;;;12.70;10.35;;;25.20;99.90;;;;;;5115356;28;20439;-73
2021/06/27 12:03:07;;;;;;;11.98;10.77;;;25.30;99.90;;;;;;5114616;28;20203;-73
2021/06/27 12:05:33;;;;;;;12.45;11.15;;;25.10;99.90;;;;;;5113189;28;20163;-71
2021/06/27 12:08:10;;;;;;;13.25;11.10;;;25.10;99.90;;;;;;5113294;28;20226;-72
2021/06/27 12:10:37;;;;;;;10.52;9.40;;;25.20;99.90;;;;;;5112267;28;20250;-72
2021/06/27 12:13:08;;;;;;;13.90;11.10;;;25.40;99.90;;;;;;5114862;28;20522;-74
2021/06/27 12:15:37;;;;;;;13.40;9.93;;;25.10;99.90;;;;;;5115895;28;20175;-70
2021/06/27 12:18:19;;;;;;;13.43;11.20;;;25.30;99.90;;;;;;5116045;28;20186;-71
2021/06/27 12:20:48;;;;;;;11.25;10.05;;;25.20;99.90;;;;;;5116159;28;20632;-72
2021/06/27 12:23:26;;;;;;;11.88;9.93;;;25.30;99.90;;;;;;5116603;28;20199;-73
2021/06/27 12:25:56;;;;;;;12.00;9.60;;;25.10;99.90;;;;;;5116212;28;20178;-71
2021/06/27 12:28:37;;;;;;;11.85;10.40;;;25.20;99.90;;;;;;5116608;28;20257;-72
2021/06/27 12:31:07;;;;;;;10.90;9.13;;;25.30;99.90;;;;;;5116012;28;20178;-74
2021/06/27 12:33:39;;;;;;;11.45;10.25;;;25.10;99.90;;;;;;5116285;28;20175;-71
2021/06/27 12:36:26;;;;;;;13.00;10.00;;;24.60;99.90;;;;;;5115357;28;20189;-72
2021/06/27 12:38:55;;;;;;;10.07;8.70;;;24.90;99.90;;;;;;5114640;28;20211;-71